Kezdőlap
METAR-TAF:

METAR-TAF

Repülőterek :

Tunisz, Tunézia

földrajzi szélesség: 36-50N, földrajzi hosszúság: 010-14E, magasság: 3 m

Jelenlegi meteorológiai megfigyelések

A jelentés 50 perccel ezelõtt készült, 09:00 UTC
Nyugati szél 17 kt
Hőmérséklet 18°C
Páratartalom 64%
Légköri nyomás 1019 hPa
Látótávolság 10 km, vagy több
Kevés felhő 2600 lábon

METAR: DTTA 220900Z 28017KT 9999 FEW026 18/11 Q1019 TEMPO 28015G32KT SQ

Idő: 10:50 (09:50 UTC)

Előrejelzés

A jelentés 4 órával és 20 perccel ezelõtt készült, 05:30 UTC
Az előrejelzés 22-én 06 óra UTC és 23-én 06 óra UTC között érvényes
Nyugat-északnyugati szél 15 kt széllökések: 37 kt
Látótávolság 10 km, vagy több
Szórványos felhőzet 2600 lábon

TAF: DTTA 220530Z 2206/2306 29015G37KT 9999 SCT026

Meteorológiai megfigyelések és előrejelzések több, mint 4000 repülőtéren (METAR és TAF jelentéseket).

A térképen piros és sárga pontok jelzik az elérhető meteorológiai állomásokat.

Mozgassa az egeret a pont fölött, hogy megjelenjen az állomás neve.

Azután kattintson az időjárási megfigyelések és előrejelzések megtekintéséhez.

A térkép megváltoztatása: kattintson a fekete keresztel jelölt zöld gombra ráközelítéshez, a vonallal jelölt zöld gombra távolításhoz, vagy a zöld nyilakra a szomszédos térképek eléréséhez.


METAR-TAF: